METAR stanice u blizini

 

LYBE - Beograd / Surčin, Srbija
Ažurirano: 24/09/2021 07:00
Vedro
Vedro
 Pravac vetra ZSZ
Vetar: ZSZ 6 km/h
Temperatura: 8°C
Tačka rose: 6°C
Vlažnost: 87%
Pritisak: 1017 hPa
Pregled: Vedro
Vidljivost: greater than 10 km
2021/09/24 05:00 LYBE 240500Z 30003KT 260V330 CAVOK 08/06 Q1017 NOSIG
LYBT - Beograd / Batajnica, Srbija
Ažurirano: 24/09/2021 07:00
Partly Cloudy
Partly Cloudy
 Pravac vetra varies
Vetar: varies 2 km/h
Temperatura: 5°C
Tačka rose: 5°C
Vlažnost: 100%
Pritisak: 1017 hPa
Oblaci: Partly Cloudy
Vidljivost: 6 km
2021/09/24 05:00 LYBT 240500Z VRB01KT 6000 NSC 05/05 Q1017 NOSIG
LYVR - Vršac, Srbija
Ažurirano: 24/09/2021 07:00
Vedro
Vedro
 Pravac vetra JJI
Vetar: JJI 28 km/h
Temperatura: 12°C
Tačka rose: 5°C
Vlažnost: 63%
Pritisak: 1016 hPa
Pregled: Vedro
Vidljivost: greater than 10 km
2021/09/24 05:00 LYVR 240500Z 16015KT CAVOK 12/05 Q1016 TEMPO 16015G25KT
 
LYKV - Lađevci, Srbija
Ažurirano: 24/09/2021 07:00
Magla, Delimično oblačno
Magla, Delimično oblačno
 Pravac vetra calm
Vetar: Tišina
Temperatura: 3°C
Tačka rose: 3°C
Vlažnost: 100%
Pritisak: 1018 hPa
Pregled: Magla
Oblaci: Partly Cloudy
Vidljivost: 0 km
2021/09/24 05:00 LYKV 240500Z 00000KT 0300 R31/0400N R13/0650D FG NSC 03/03 Q1018 NOSIG
LYNI - Niš, Srbija
Ažurirano: 24/09/2021 07:00
Vedro
Vedro
 Pravac vetra IJI
Vetar: IJI 6 km/h
Temperatura: 5°C
Tačka rose: 3°C
Vlažnost: 87%
Pritisak: 1020 hPa
Pregled: Vedro
Vidljivost: greater than 10 km
2021/09/24 05:00 LYNI 240500Z 12003KT CAVOK 05/03 Q1020 NOSIG
BKPR - Priština, Srbija
Ažurirano: 24/09/2021 07:00
Mist, Delimično oblačno
Mist, Delimično oblačno
 Pravac vetra varies
Vetar: varies 2 km/h
Temperatura: 1°C
Tačka rose: 0°C
Vlažnost: 93%
Pritisak: 1020 hPa
Pregled: Mist
Oblaci: Partly Cloudy
Vidljivost: 3 km
Cloud details: Few Clouds 152 m
Partly Cloudy 5486 m
2021/09/24 05:00 BKPR 240500Z VRB01KT 3000 BR FEW005 SCT180 01/00 Q1020 NOSIG
 
LHPP - Pecs / Pogany, Hungary
Ažurirano: 24/09/2021 06:45
Vedro
Vedro
 Pravac vetra ZSZ
Vetar: ZSZ 13 km/h
Temperatura: 11°C
Tačka rose: 7°C
Vlažnost: 77%
Pritisak: 1016 hPa
Pregled: Vedro
Vidljivost: greater than 10 km
2021/09/24 04:45 LHPP 240445Z AUTO 30007KT CAVOK 11/07 Q1016
LHUD - Szeged, Hungary
Ažurirano: 04/07/2019 01:45
NOT Current
Vedro
Vedro
 Pravac vetra S
Vetar: S 7 km/h
Temperatura: 18°C
Tačka rose: 13°C
Vlažnost: 73%
Pritisak: 1019 hPa
Pregled: Vedro
Vidljivost: greater than 10 km
2019/07/03 23:45 LHUD 032345Z 35004KT CAVOK 18/13 Q1019
LRTR - Timisoara, Romania
Ažurirano: 24/09/2021 07:00
Vedro
Vedro
 Pravac vetra IJI
Vetar: IJI 7 km/h
Temperatura: 7°C
Osećaj hladnoće: 6°C
Tačka rose: 6°C
Vlažnost: 93%
Pritisak: 1016 hPa
Pregled: Vedro
Vidljivost: greater than 10 km
2021/09/24 05:00 LRTR 240500Z 11004KT CAVOK 07/06 Q1016 NOSIG
 
LRCV - Craiova, Romania
Ažurirano: 24/09/2021 07:00
Vedro
Vedro
 Pravac vetra JZ
Vetar: JZ 6 km/h
Temperatura: 5°C
Tačka rose: 3°C
Vlažnost: 87%
Pritisak: 1016 hPa
Pregled: Vedro
Vidljivost: greater than 10 km
2021/09/24 05:00 LRCV 240500Z 22003KT CAVOK 05/03 Q1016
LBSF - Sofia, Bulgaria
Ažurirano: 24/09/2021 07:00
Vedro
Vedro
 Pravac vetra varies
Vetar: varies 4 km/h
Temperatura: 6°C
Tačka rose: 3°C
Vlažnost: 81%
Pritisak: 1019 hPa
Pregled: Vedro
Vidljivost: greater than 10 km
2021/09/24 05:00 LBSF 240500Z VRB02KT CAVOK 06/03 Q1019 NOSIG
LWSK - Skoplje, Makedonija
Ažurirano: 24/09/2021 07:00
Vedro
Vedro
 Pravac vetra JI
Vetar: JI 4 km/h
Temperatura: 2°C
Tačka rose: 1°C
Vlažnost: 93%
Pritisak: 1021 hPa
Pregled: Vedro
Vidljivost: greater than 10 km
2021/09/24 05:00 LWSK 240500Z 13002KT CAVOK 02/01 Q1021 NOSIG
 
LYPG - Podgorica, Crna Gora
Ažurirano: 24/09/2021 07:00
Vedro
Vedro
 Pravac vetra SSZ
Vetar: SSZ 7 km/h
Temperatura: 11°C
Tačka rose: 4°C
Vlažnost: 62%
Pritisak: 1020 hPa
Pregled: Vedro
Vidljivost: greater than 10 km
2021/09/24 05:00 LYPG 240500Z 33004KT 250V360 CAVOK 11/04 Q1020 NOSIG
LQSA - Sarajevo, Bosna i Hercegovina
Ažurirano: 24/09/2021 07:00
Patches of fog, Pretežno oblačno
Patches of fog, Pretežno oblačno
 Pravac vetra calm
Vetar: Tišina
Temperatura: 3°C
Tačka rose: 3°C
Vlažnost: 100%
Pritisak: 1020 hPa
Pregled: Patches of Fog
Oblaci: Mostly Cloudy
Vidljivost: 7 km
Cloud details: Partly Cloudy 30 m
Mostly Cloudy 91 m
2021/09/24 05:00 LQSA 240500Z 00000KT 7000 3000SW BCFG SCT001 BKN003 03/03 Q1020
LDOS - Osijek, Hrvatksa
Ažurirano: 24/09/2021 07:00
Vedro
Vedro
 Pravac vetra J
Vetar: J 7 km/h
Temperatura: 7°C
Osećaj hladnoće: 6°C
Tačka rose: 6°C
Vlažnost: 93%
Pritisak: 1016 hPa
Pregled: Vedro
Vidljivost: greater than 10 km
2021/09/24 05:00 LDOS 240500Z 17004KT CAVOK 07/06 Q1016